createdAt,value
2018-08-19T00:00:14.767Z,998.33
2018-08-19T00:01:14.761Z,998.28
2018-08-19T00:02:14.754Z,998.28
2018-08-19T00:03:35.756Z,998.29
2018-08-19T00:04:14.745Z,998.31
2018-08-19T00:05:14.742Z,998.30
2018-08-19T00:06:14.741Z,998.29
2018-08-19T00:07:14.731Z,998.28
2018-08-19T00:08:14.724Z,998.28
2018-08-19T00:09:35.726Z,998.27
2018-08-19T00:10:14.714Z,998.26
2018-08-19T00:11:14.710Z,998.24
2018-08-19T00:12:14.719Z,998.24
2018-08-19T00:13:14.696Z,998.23
2018-08-19T00:14:14.692Z,998.24
2018-08-19T00:15:35.692Z,998.21
2018-08-19T00:16:14.681Z,998.22
2018-08-19T00:17:14.678Z,998.21
2018-08-19T00:18:14.677Z,998.21
2018-08-19T00:19:14.666Z,998.26
2018-08-19T00:20:14.662Z,998.24
2018-08-19T00:21:35.666Z,998.22
2018-08-19T00:22:14.652Z,998.19
2018-08-19T00:23:14.644Z,998.20
2018-08-19T00:24:14.649Z,998.25
2018-08-19T00:25:14.635Z,998.19
2018-08-19T00:26:14.650Z,998.16
2018-08-19T00:27:35.633Z,998.17
2018-08-19T00:28:14.625Z,998.16
2018-08-19T00:29:14.617Z,998.13
2018-08-19T00:30:14.611Z,998.15
2018-08-19T00:31:14.604Z,998.19
2018-08-19T00:32:14.601Z,998.16
2018-08-19T00:33:35.600Z,998.16
2018-08-19T00:34:14.589Z,998.18
2018-08-19T00:35:14.586Z,998.19
2018-08-19T00:36:14.578Z,998.15
2018-08-19T00:37:14.573Z,998.19
2018-08-19T00:38:14.571Z,998.14
2018-08-19T00:39:35.568Z,998.18
2018-08-19T00:40:14.558Z,998.14
2018-08-19T00:41:14.553Z,998.16
2018-08-19T00:42:14.553Z,998.17
2018-08-19T00:43:14.542Z,998.16
2018-08-19T00:44:14.542Z,998.19
2018-08-19T00:45:35.545Z,998.16
2018-08-19T00:46:14.531Z,998.16
2018-08-19T00:47:14.524Z,998.13
2018-08-19T00:48:14.520Z,998.14
2018-08-19T00:49:14.510Z,998.14
2018-08-19T00:50:14.508Z,998.13
2018-08-19T00:51:35.511Z,998.13
2018-08-19T00:52:14.496Z,998.11
2018-08-19T00:53:14.491Z,998.15
2018-08-19T00:54:14.490Z,998.12
2018-08-19T00:55:14.483Z,998.09
2018-08-19T00:56:14.476Z,998.07
2018-08-19T00:57:35.478Z,998.08
2018-08-19T00:58:14.467Z,998.10
2018-08-19T00:59:14.460Z,998.07
2018-08-19T01:00:14.458Z,998.10
2018-08-19T01:01:14.451Z,998.04
2018-08-19T01:02:14.448Z,998.08
2018-08-19T01:03:35.453Z,998.08
2018-08-19T01:04:14.435Z,998.06
2018-08-19T01:05:14.431Z,998.08
2018-08-19T01:06:14.423Z,998.09
2018-08-19T01:07:14.418Z,998.11
2018-08-19T01:08:14.416Z,998.10
2018-08-19T01:09:35.427Z,998.06
2018-08-19T01:10:14.419Z,998.10
2018-08-19T01:11:14.400Z,998.11
2018-08-19T01:12:14.395Z,998.10
2018-08-19T01:13:14.390Z,998.13
2018-08-19T01:14:14.383Z,998.16
2018-08-19T01:15:35.384Z,998.17
2018-08-19T01:16:14.375Z,998.15
2018-08-19T01:17:14.370Z,998.16
2018-08-19T01:18:14.364Z,998.16
2018-08-19T01:19:14.364Z,998.15
2018-08-19T01:20:14.353Z,998.15
2018-08-19T01:21:35.356Z,998.18
2018-08-19T01:22:14.343Z,998.17
2018-08-19T01:23:14.342Z,998.15
2018-08-19T01:24:14.336Z,998.13
2018-08-19T01:25:14.328Z,998.16
2018-08-19T01:26:14.323Z,998.16
2018-08-19T01:27:35.325Z,998.19
2018-08-19T01:28:14.322Z,998.20
2018-08-19T01:29:14.321Z,998.16
2018-08-19T01:30:14.303Z,998.20
2018-08-19T01:31:14.301Z,998.18
2018-08-19T01:32:14.292Z,998.14
2018-08-19T01:33:35.295Z,998.16
2018-08-19T01:34:14.284Z,998.18
2018-08-19T01:35:14.278Z,998.16
2018-08-19T01:36:14.271Z,998.16
2018-08-19T01:37:14.271Z,998.18
2018-08-19T01:38:14.262Z,998.18
2018-08-19T01:39:35.262Z,998.18
2018-08-19T01:40:14.252Z,998.18
2018-08-19T01:41:14.246Z,998.18
2018-08-19T01:42:14.250Z,998.14
2018-08-19T01:43:14.236Z,998.17
2018-08-19T01:44:14.235Z,998.14
2018-08-19T01:45:35.233Z,998.15
2018-08-19T01:46:14.229Z,998.12
2018-08-19T01:47:14.215Z,998.18
2018-08-19T01:48:14.211Z,998.18
2018-08-19T01:49:14.205Z,998.19
2018-08-19T01:50:14.201Z,998.20
2018-08-19T01:51:35.200Z,998.17
2018-08-19T01:52:14.191Z,998.20
2018-08-19T01:53:14.190Z,998.20
2018-08-19T01:54:14.178Z,998.23
2018-08-19T01:55:14.173Z,998.22
2018-08-19T01:56:14.182Z,998.20
2018-08-19T01:57:35.172Z,998.22
2018-08-19T01:58:14.166Z,998.25
2018-08-19T01:59:14.156Z,998.29
2018-08-19T02:00:14.154Z,998.26
2018-08-19T02:01:14.151Z,998.28
2018-08-19T02:02:14.149Z,998.28
2018-08-19T02:03:35.138Z,998.28
2018-08-19T02:04:14.128Z,998.32
2018-08-19T02:05:14.130Z,998.33
2018-08-19T02:06:14.118Z,998.32
2018-08-19T02:07:14.116Z,998.36
2018-08-19T02:08:14.113Z,998.33
2018-08-19T02:09:35.111Z,998.34
2018-08-19T02:10:14.096Z,998.33
2018-08-19T02:11:14.093Z,998.33
2018-08-19T02:12:14.087Z,998.32
2018-08-19T02:13:14.082Z,998.35
2018-08-19T02:14:14.087Z,998.37
2018-08-19T02:15:35.079Z,998.34
2018-08-19T02:16:14.071Z,998.35
2018-08-19T02:17:14.066Z,998.41
2018-08-19T02:18:14.060Z,998.36
2018-08-19T02:19:14.055Z,998.39
2018-08-19T02:20:14.051Z,998.41
2018-08-19T02:21:35.050Z,998.38
2018-08-19T02:22:14.035Z,998.37
2018-08-19T02:23:14.036Z,998.37
2018-08-19T02:24:14.028Z,998.33
2018-08-19T02:25:14.021Z,998.33
2018-08-19T02:26:14.018Z,998.37
2018-08-19T02:27:35.016Z,998.34
2018-08-19T02:28:14.004Z,998.33
2018-08-19T02:29:14.003Z,998.31
2018-08-19T02:30:13.995Z,998.29
2018-08-19T02:31:13.989Z,998.30
2018-08-19T02:32:13.989Z,998.28
2018-08-19T02:33:35.017Z,998.33
2018-08-19T02:34:13.978Z,998.33
2018-08-19T02:35:13.969Z,998.31
2018-08-19T02:36:13.968Z,998.34
2018-08-19T02:37:13.959Z,998.31
2018-08-19T02:38:13.954Z,998.31
2018-08-19T02:39:34.986Z,998.34
2018-08-19T02:40:13.943Z,998.28
2018-08-19T02:41:13.938Z,998.31
2018-08-19T02:42:13.957Z,998.30
2018-08-19T02:43:13.931Z,998.30
2018-08-19T02:44:13.924Z,998.34
2018-08-19T02:45:34.926Z,998.28
2018-08-19T02:46:13.913Z,998.31
2018-08-19T02:47:13.908Z,998.38
2018-08-19T02:48:13.904Z,998.34
2018-08-19T02:49:13.898Z,998.31
2018-08-19T02:50:13.892Z,998.33
2018-08-19T02:51:34.893Z,998.34
2018-08-19T02:52:13.881Z,998.33
2018-08-19T02:53:13.874Z,998.31
2018-08-19T02:54:13.876Z,998.27
2018-08-19T02:55:13.867Z,998.30
2018-08-19T02:56:13.867Z,998.32
2018-08-19T02:57:34.862Z,998.27
2018-08-19T02:58:13.851Z,998.29
2018-08-19T02:59:13.844Z,998.32
2018-08-19T03:00:13.847Z,998.29
2018-08-19T03:01:13.835Z,998.32
2018-08-19T03:02:13.829Z,998.28
2018-08-19T03:03:34.841Z,998.30
2018-08-19T03:04:13.819Z,998.30
2018-08-19T03:05:13.816Z,998.32
2018-08-19T03:06:13.809Z,998.30
2018-08-19T03:07:13.807Z,998.32
2018-08-19T03:08:13.797Z,998.30
2018-08-19T03:09:34.808Z,998.34
2018-08-19T03:10:13.791Z,998.36
2018-08-19T03:11:13.781Z,998.34
2018-08-19T03:12:13.780Z,998.37
2018-08-19T03:13:13.775Z,998.31
2018-08-19T03:14:13.770Z,998.37
2018-08-19T03:15:34.770Z,998.34
2018-08-19T03:16:13.757Z,998.33
2018-08-19T03:17:13.751Z,998.34
2018-08-19T03:18:13.752Z,998.32
2018-08-19T03:19:13.741Z,998.32
2018-08-19T03:20:13.737Z,998.34
2018-08-19T03:21:34.744Z,998.33
2018-08-19T03:22:13.732Z,998.33
2018-08-19T03:23:13.720Z,998.30
2018-08-19T03:24:13.713Z,998.30
2018-08-19T03:25:13.709Z,998.28
2018-08-19T03:26:13.705Z,998.27
2018-08-19T03:27:34.705Z,998.34
2018-08-19T03:28:13.694Z,998.31
2018-08-19T03:29:13.690Z,998.30
2018-08-19T03:30:13.683Z,998.30
2018-08-19T03:31:13.679Z,998.34
2018-08-19T03:32:13.672Z,998.33
2018-08-19T03:33:34.676Z,998.32
2018-08-19T03:34:13.662Z,998.36
2018-08-19T03:35:13.669Z,998.29
2018-08-19T03:36:13.656Z,998.32
2018-08-19T03:37:13.647Z,998.29
2018-08-19T03:38:13.645Z,998.32
2018-08-19T03:39:34.642Z,998.35
2018-08-19T03:40:13.632Z,998.32
2018-08-19T03:41:13.626Z,998.31
2018-08-19T03:42:13.621Z,998.32
2018-08-19T03:43:13.615Z,998.32
2018-08-19T03:44:13.611Z,998.30
2018-08-19T03:45:34.612Z,998.30
2018-08-19T03:46:13.601Z,998.29
2018-08-19T03:47:13.595Z,998.28
2018-08-19T03:48:13.590Z,998.28
2018-08-19T03:49:13.585Z,998.29
2018-08-19T03:50:13.584Z,998.34
2018-08-19T03:51:34.586Z,998.35
2018-08-19T03:52:13.570Z,998.36
2018-08-19T03:53:13.565Z,998.37
2018-08-19T03:54:13.560Z,998.39
2018-08-19T03:55:13.555Z,998.34
2018-08-19T03:56:13.547Z,998.35
2018-08-19T03:57:34.548Z,998.40
2018-08-19T03:58:13.537Z,998.39
2018-08-19T03:59:13.532Z,998.36
2018-08-19T04:00:13.523Z,998.38
2018-08-19T04:01:13.519Z,998.35
2018-08-19T04:02:13.515Z,998.35
2018-08-19T04:03:34.514Z,998.37
2018-08-19T04:04:13.504Z,998.36
2018-08-19T04:05:13.500Z,998.39
2018-08-19T04:06:13.501Z,998.43
2018-08-19T04:07:13.488Z,998.44
2018-08-19T04:08:13.485Z,998.45
2018-08-19T04:09:34.488Z,998.46
2018-08-19T04:10:13.472Z,998.47
2018-08-19T04:11:13.467Z,998.46
2018-08-19T04:12:13.471Z,998.47
2018-08-19T04:13:13.458Z,998.45
2018-08-19T04:14:13.452Z,998.47
2018-08-19T04:15:34.454Z,998.47
2018-08-19T04:16:13.439Z,998.44
2018-08-19T04:17:13.436Z,998.46
2018-08-19T04:18:13.428Z,998.41
2018-08-19T04:19:13.424Z,998.40
2018-08-19T04:20:13.420Z,998.40
2018-08-19T04:21:34.422Z,998.40
2018-08-19T04:22:13.412Z,998.40
2018-08-19T04:23:13.407Z,998.37
2018-08-19T04:24:13.406Z,998.38
2018-08-19T04:25:13.395Z,998.34
2018-08-19T04:26:13.388Z,998.34
2018-08-19T04:27:34.387Z,998.35
2018-08-19T04:28:13.376Z,998.36
2018-08-19T04:29:13.376Z,998.34
2018-08-19T04:30:13.378Z,998.33
2018-08-19T04:31:13.359Z,998.32
2018-08-19T04:32:13.355Z,998.33
2018-08-19T04:33:34.357Z,998.33
2018-08-19T04:34:13.346Z,998.31
2018-08-19T04:35:13.338Z,998.34
2018-08-19T04:36:13.333Z,998.33
2018-08-19T04:37:13.330Z,998.32
2018-08-19T04:38:13.336Z,998.33
2018-08-19T04:39:34.326Z,998.32
2018-08-19T04:40:13.316Z,998.36
2018-08-19T04:41:13.307Z,998.32
2018-08-19T04:42:13.342Z,998.30
2018-08-19T04:43:13.297Z,998.31
2018-08-19T04:44:13.291Z,998.27
2018-08-19T04:45:34.299Z,998.31
2018-08-19T04:46:13.281Z,998.29
2018-08-19T04:47:13.278Z,998.31
2018-08-19T04:48:13.269Z,998.33
2018-08-19T04:49:13.271Z,998.33
2018-08-19T04:50:13.261Z,998.33
2018-08-19T04:51:34.262Z,998.29
2018-08-19T04:52:13.248Z,998.32
2018-08-19T04:53:13.241Z,998.35
2018-08-19T04:54:13.239Z,998.37
2018-08-19T04:55:13.231Z,998.33
2018-08-19T04:56:13.233Z,998.37
2018-08-19T04:57:34.227Z,998.34
2018-08-19T04:58:13.221Z,998.33
2018-08-19T04:59:13.213Z,998.34
2018-08-19T05:00:13.208Z,998.31
2018-08-19T05:01:13.205Z,998.33
2018-08-19T05:02:13.306Z,998.32
2018-08-19T05:03:34.207Z,998.36
2018-08-19T05:04:13.185Z,998.37
2018-08-19T05:05:13.183Z,998.42
2018-08-19T05:06:13.172Z,998.38
2018-08-19T05:07:13.167Z,998.46
2018-08-19T05:08:13.258Z,998.43
2018-08-19T05:09:34.164Z,998.44
2018-08-19T05:10:13.153Z,998.45
2018-08-19T05:11:13.146Z,998.51
2018-08-19T05:12:13.138Z,998.46
2018-08-19T05:13:13.143Z,998.48
2018-08-19T05:14:13.131Z,998.50
2018-08-19T05:15:34.174Z,998.49
2018-08-19T05:16:13.118Z,998.50
2018-08-19T05:17:13.118Z,998.48
2018-08-19T05:18:13.113Z,998.53
2018-08-19T05:19:13.102Z,998.54
2018-08-19T05:20:13.096Z,998.57
2018-08-19T05:21:34.098Z,998.54
2018-08-19T05:22:13.094Z,998.58
2018-08-19T05:23:13.082Z,998.58
2018-08-19T05:24:13.075Z,998.60
2018-08-19T05:25:13.068Z,998.61
2018-08-19T05:26:13.062Z,998.62
2018-08-19T05:27:34.065Z,998.67
2018-08-19T05:28:13.061Z,998.62
2018-08-19T05:29:13.048Z,998.62
2018-08-19T05:30:13.042Z,998.66
2018-08-19T05:31:13.050Z,998.63
2018-08-19T05:32:13.032Z,998.63
2018-08-19T05:33:34.034Z,998.61
2018-08-19T05:34:13.026Z,998.62
2018-08-19T05:35:13.019Z,998.61
2018-08-19T05:36:13.012Z,998.66
2018-08-19T05:37:13.003Z,998.57
2018-08-19T05:38:13.000Z,998.60
2018-08-19T05:39:33.999Z,998.61
2018-08-19T05:40:12.998Z,998.61
2018-08-19T05:41:12.984Z,998.63
2018-08-19T05:42:12.977Z,998.64
2018-08-19T05:43:13.017Z,998.64
2018-08-19T05:44:12.998Z,998.65
2018-08-19T05:45:33.968Z,998.70
2018-08-19T05:46:12.984Z,998.65
2018-08-19T05:47:13.029Z,998.68
2018-08-19T05:48:12.944Z,998.66
2018-08-19T05:49:12.939Z,998.68
2018-08-19T05:50:12.947Z,998.70
2018-08-19T05:51:33.942Z,998.67
2018-08-19T05:52:12.957Z,998.70
2018-08-19T05:53:12.943Z,998.71
2018-08-19T05:54:12.914Z,998.68
2018-08-19T05:55:12.906Z,998.73
2018-08-19T05:56:12.924Z,998.71
2018-08-19T05:57:33.902Z,998.70
2018-08-19T05:58:12.901Z,998.67
2018-08-19T05:59:12.887Z,998.70
2018-08-19T06:00:12.881Z,998.64
2018-08-19T06:01:12.922Z,998.62
2018-08-19T06:02:12.871Z,998.63
2018-08-19T06:03:33.870Z,998.67
2018-08-19T06:04:12.902Z,998.64
2018-08-19T06:05:12.853Z,998.63
2018-08-19T06:06:12.852Z,998.65
2018-08-19T06:07:12.843Z,998.64
2018-08-19T06:08:12.837Z,998.64
2018-08-19T06:09:33.845Z,998.59
2018-08-19T06:10:12.827Z,998.57
2018-08-19T06:11:12.828Z,998.56
2018-08-19T06:12:12.815Z,998.50
2018-08-19T06:13:12.809Z,998.51
2018-08-19T06:14:12.806Z,998.49
2018-08-19T06:15:33.804Z,998.48
2018-08-19T06:16:12.793Z,998.50
2018-08-19T06:17:12.790Z,998.50
2018-08-19T06:18:12.782Z,998.49
2018-08-19T06:19:12.779Z,998.50
2018-08-19T06:20:12.771Z,998.49
2018-08-19T06:21:33.775Z,998.52
2018-08-19T06:22:12.762Z,998.54
2018-08-19T06:23:12.757Z,998.53
2018-08-19T06:24:12.750Z,998.50
2018-08-19T06:25:12.746Z,998.55
2018-08-19T06:26:12.741Z,998.59
2018-08-19T06:27:33.744Z,998.58
2018-08-19T06:28:12.732Z,998.65
2018-08-19T06:29:12.728Z,998.63
2018-08-19T06:30:12.717Z,998.61
2018-08-19T06:31:12.764Z,998.61
2018-08-19T06:32:12.708Z,998.69
2018-08-19T06:33:33.710Z,998.63
2018-08-19T06:34:12.696Z,998.67
2018-08-19T06:35:12.691Z,998.67
2018-08-19T06:36:12.686Z,998.68
2018-08-19T06:37:12.681Z,998.74
2018-08-19T06:38:12.678Z,998.68
2018-08-19T06:39:33.681Z,998.72
2018-08-19T06:40:12.665Z,998.75
2018-08-19T06:41:12.661Z,998.73
2018-08-19T06:42:12.654Z,998.71
2018-08-19T06:43:12.660Z,998.71
2018-08-19T06:44:12.643Z,998.71
2018-08-19T06:45:33.645Z,998.71
2018-08-19T06:46:12.636Z,998.65
2018-08-19T06:47:12.628Z,998.65
2018-08-19T06:48:12.620Z,998.62
2018-08-19T06:49:12.615Z,998.62
2018-08-19T06:50:12.613Z,998.64
2018-08-19T06:51:33.611Z,998.61
2018-08-19T06:52:12.673Z,998.64
2018-08-19T06:53:12.595Z,998.62
2018-08-19T06:54:12.591Z,998.63
2018-08-19T06:55:12.586Z,998.68
2018-08-19T06:56:12.579Z,998.66
2018-08-19T06:57:33.581Z,998.68
2018-08-19T06:58:12.567Z,998.71
2018-08-19T06:59:12.638Z,998.68
2018-08-19T07:00:12.559Z,998.70
2018-08-19T07:01:12.559Z,998.71
2018-08-19T07:02:12.548Z,998.70
2018-08-19T07:03:33.656Z,998.71
2018-08-19T07:04:12.536Z,998.67
2018-08-19T07:05:12.533Z,998.68
2018-08-19T07:06:12.527Z,998.67
2018-08-19T07:07:12.519Z,998.69
2018-08-19T07:08:12.517Z,998.73
2018-08-19T07:09:33.520Z,998.68
2018-08-19T07:10:12.509Z,998.70
2018-08-19T07:11:12.503Z,998.70
2018-08-19T07:12:12.497Z,998.71
2018-08-19T07:13:12.489Z,998.69
2018-08-19T07:14:12.482Z,998.70
2018-08-19T07:15:33.555Z,998.65
2018-08-19T07:16:12.477Z,998.67
2018-08-19T07:17:12.477Z,998.66
2018-08-19T07:18:12.465Z,998.68
2018-08-19T07:19:12.462Z,998.67
2018-08-19T07:20:12.454Z,998.66
2018-08-19T07:21:33.473Z,998.64
2018-08-19T07:22:12.444Z,998.63
2018-08-19T07:23:12.433Z,998.65
2018-08-19T07:24:12.433Z,998.67
2018-08-19T07:25:12.425Z,998.71
2018-08-19T07:26:12.428Z,998.69
2018-08-19T07:27:33.423Z,998.69
2018-08-19T07:28:12.404Z,998.69
2018-08-19T07:29:12.400Z,998.69
2018-08-19T07:30:12.397Z,998.72
2018-08-19T07:31:12.395Z,998.68
2018-08-19T07:32:12.385Z,998.69
2018-08-19T07:33:33.384Z,998.70
2018-08-19T07:34:12.377Z,998.73
2018-08-19T07:35:12.367Z,998.70
2018-08-19T07:36:12.357Z,998.73
2018-08-19T07:37:12.437Z,998.76
2018-08-19T07:38:12.349Z,998.73
2018-08-19T07:39:33.349Z,998.74
2018-08-19T07:40:12.362Z,998.75
2018-08-19T07:41:12.329Z,998.76
2018-08-19T07:42:12.384Z,998.75
2018-08-19T07:43:12.322Z,998.78
2018-08-19T07:44:12.312Z,998.80
2018-08-19T07:45:33.312Z,998.76
2018-08-19T07:46:12.303Z,998.80
2018-08-19T07:47:12.300Z,998.80
2018-08-19T07:48:12.287Z,998.79
2018-08-19T07:49:12.282Z,998.81
2018-08-19T07:50:12.284Z,998.75
2018-08-19T07:51:33.312Z,998.73
2018-08-19T07:52:12.264Z,998.74
2018-08-19T07:53:12.256Z,998.72
2018-08-19T07:54:12.258Z,998.75
2018-08-19T07:55:12.251Z,998.74
2018-08-19T07:56:12.242Z,998.74
2018-08-19T07:57:33.244Z,998.77
2018-08-19T07:58:12.233Z,998.79
2018-08-19T07:59:12.222Z,998.75
2018-08-19T08:00:12.217Z,998.77
2018-08-19T08:01:12.213Z,998.77
2018-08-19T08:02:12.204Z,998.77
2018-08-19T08:03:33.220Z,998.80
2018-08-19T08:04:12.191Z,998.75
2018-08-19T08:05:12.188Z,998.76
2018-08-19T08:06:12.185Z,998.72
2018-08-19T08:07:12.175Z,998.71
2018-08-19T08:08:12.169Z,998.73
2018-08-19T08:09:33.171Z,998.74
2018-08-19T08:10:12.161Z,998.74
2018-08-19T08:11:12.153Z,998.71
2018-08-19T08:12:12.146Z,998.72
2018-08-19T08:13:12.145Z,998.71
2018-08-19T08:14:12.139Z,998.68
2018-08-19T08:15:33.132Z,998.69
2018-08-19T08:16:12.123Z,998.74
2018-08-19T08:17:12.118Z,998.74
2018-08-19T08:18:12.111Z,998.76
2018-08-19T08:19:12.106Z,998.76
2018-08-19T08:20:12.100Z,998.73
2018-08-19T08:21:33.312Z,998.76
2018-08-19T08:22:12.090Z,998.71
2018-08-19T08:23:12.084Z,998.76
2018-08-19T08:24:12.083Z,998.77
2018-08-19T08:25:12.103Z,998.74
2018-08-19T08:26:12.071Z,998.76
2018-08-19T08:27:33.068Z,998.78
2018-08-19T08:28:12.058Z,998.81
2018-08-19T08:29:12.098Z,998.80
2018-08-19T08:30:12.047Z,998.81
2018-08-19T08:31:12.047Z,998.78
2018-08-19T08:32:12.042Z,998.81
2018-08-19T08:33:33.041Z,998.79
2018-08-19T08:34:12.042Z,998.79
2018-08-19T08:35:12.017Z,998.77
2018-08-19T08:36:12.014Z,998.76
2018-08-19T08:37:12.007Z,998.75
2018-08-19T08:38:12.005Z,998.73
2018-08-19T08:39:33.002Z,998.73
2018-08-19T08:40:11.997Z,998.76
2018-08-19T08:41:11.985Z,998.75
2018-08-19T08:42:11.985Z,998.77
2018-08-19T08:43:11.973Z,998.77
2018-08-19T08:44:11.970Z,998.75
2018-08-19T08:45:32.978Z,998.77
2018-08-19T08:46:11.959Z,998.79
2018-08-19T08:47:11.958Z,998.76
2018-08-19T08:48:11.948Z,998.76
2018-08-19T08:49:11.949Z,998.71
2018-08-19T08:50:11.938Z,998.72
2018-08-19T08:51:32.942Z,998.74
2018-08-19T08:52:11.928Z,998.73
2018-08-19T08:53:11.983Z,998.74
2018-08-19T08:54:11.921Z,998.71
2018-08-19T08:55:11.911Z,998.69
2018-08-19T08:56:11.904Z,998.71
2018-08-19T08:57:32.948Z,998.71
2018-08-19T08:58:11.922Z,998.67
2018-08-19T08:59:11.915Z,998.77
2018-08-19T09:00:11.884Z,998.69
2018-08-19T09:01:11.880Z,998.69
2018-08-19T09:02:11.879Z,998.67
2018-08-19T09:03:32.894Z,998.66
2018-08-19T09:04:11.867Z,998.65
2018-08-19T09:05:11.859Z,998.66
2018-08-19T09:06:11.862Z,998.65
2018-08-19T09:07:11.849Z,998.67
2018-08-19T09:08:11.844Z,998.63
2018-08-19T09:09:32.845Z,998.64
2018-08-19T09:10:11.834Z,998.59
2018-08-19T09:11:11.829Z,998.63
2018-08-19T09:12:11.824Z,998.61
2018-08-19T09:13:11.821Z,998.66
2018-08-19T09:14:11.814Z,998.62
2018-08-19T09:15:32.816Z,998.66
2018-08-19T09:16:11.804Z,998.62
2018-08-19T09:17:11.800Z,998.61
2018-08-19T09:18:11.800Z,998.62
2018-08-19T09:19:11.838Z,998.60
2018-08-19T09:20:11.804Z,998.64
2018-08-19T09:21:32.789Z,998.62
2018-08-19T09:22:11.783Z,998.59
2018-08-19T09:23:11.932Z,998.59
2018-08-19T09:24:11.784Z,998.58
2018-08-19T09:25:11.762Z,998.61
2018-08-19T09:26:11.837Z,998.60
2018-08-19T09:27:32.756Z,998.57
2018-08-19T09:28:11.794Z,998.58
2018-08-19T09:29:11.741Z,998.56
2018-08-19T09:30:11.735Z,998.55
2018-08-19T09:31:11.729Z,998.55
2018-08-19T09:32:11.724Z,998.53
2018-08-19T09:33:32.730Z,998.53
2018-08-19T09:34:11.717Z,998.56
2018-08-19T09:35:11.710Z,998.56
2018-08-19T09:36:11.717Z,998.56
2018-08-19T09:37:11.702Z,998.53
2018-08-19T09:38:11.701Z,998.53
2018-08-19T09:39:32.699Z,998.53
2018-08-19T09:40:11.705Z,998.55
2018-08-19T09:41:11.683Z,998.51
2018-08-19T09:42:11.680Z,998.53
2018-08-19T09:43:11.672Z,998.51
2018-08-19T09:44:11.667Z,998.52
2018-08-19T09:45:32.677Z,998.52
2018-08-19T09:46:11.664Z,998.51
2018-08-19T09:47:11.655Z,998.46
2018-08-19T09:48:11.651Z,998.47
2018-08-19T09:49:11.645Z,998.48
2018-08-19T09:50:11.639Z,998.44
2018-08-19T09:51:32.642Z,998.48
2018-08-19T09:52:11.631Z,998.41
2018-08-19T09:53:11.627Z,998.38
2018-08-19T09:54:11.687Z,998.39
2018-08-19T09:55:11.617Z,998.37
2018-08-19T09:56:11.620Z,998.36
2018-08-19T09:57:32.633Z,998.35
2018-08-19T09:58:11.607Z,998.32
2018-08-19T09:59:11.597Z,998.33
2018-08-19T10:00:11.601Z,998.33
2018-08-19T10:01:11.594Z,998.33
2018-08-19T10:02:11.591Z,998.27
2018-08-19T10:03:32.588Z,998.31
2018-08-19T10:04:11.579Z,998.28
2018-08-19T10:05:11.573Z,998.26
2018-08-19T10:06:11.577Z,998.28
2018-08-19T10:07:11.563Z,998.22
2018-08-19T10:08:11.558Z,998.22
2018-08-19T10:09:32.565Z,998.25
2018-08-19T10:10:11.549Z,998.24
2018-08-19T10:11:11.545Z,998.25
2018-08-19T10:12:11.539Z,998.16
2018-08-19T10:13:11.535Z,998.16
2018-08-19T10:14:11.530Z,998.17
2018-08-19T10:15:32.531Z,998.14
2018-08-19T10:16:11.524Z,998.17
2018-08-19T10:17:11.516Z,998.11
2018-08-19T10:18:11.514Z,998.11
2018-08-19T10:19:11.517Z,998.13
2018-08-19T10:20:11.502Z,998.13
2018-08-19T10:21:32.511Z,998.12
2018-08-19T10:22:11.498Z,998.09
2018-08-19T10:23:11.488Z,998.07
2018-08-19T10:24:11.486Z,998.11
2018-08-19T10:25:11.485Z,998.04
2018-08-19T10:26:11.481Z,998.02
2018-08-19T10:27:32.478Z,998.03
2018-08-19T10:28:11.473Z,998.01
2018-08-19T10:29:11.464Z,998.02
2018-08-19T10:30:11.464Z,998.03
2018-08-19T10:31:11.454Z,998.01
2018-08-19T10:32:11.450Z,998.01
2018-08-19T10:33:32.453Z,997.93
2018-08-19T10:34:11.440Z,997.97
2018-08-19T10:35:11.436Z,997.95
2018-08-19T10:36:11.432Z,998.00
2018-08-19T10:37:11.435Z,997.96
2018-08-19T10:38:11.432Z,997.98
2018-08-19T10:39:32.426Z,997.97
2018-08-19T10:40:11.424Z,997.93
2018-08-19T10:41:11.412Z,997.94
2018-08-19T10:42:11.412Z,997.93
2018-08-19T10:43:11.404Z,997.87
2018-08-19T10:44:11.397Z,997.85
2018-08-19T10:45:32.406Z,997.83
2018-08-19T10:46:11.408Z,997.78
2018-08-19T10:47:11.384Z,997.74
2018-08-19T10:48:11.386Z,997.75
2018-08-19T10:49:11.376Z,997.80
2018-08-19T10:50:12.031Z,997.79
2018-08-19T10:51:32.384Z,997.78
2018-08-19T10:52:11.363Z,997.79
2018-08-19T10:53:11.377Z,997.72
2018-08-19T10:54:11.358Z,997.75
2018-08-19T10:55:11.354Z,997.71
2018-08-19T10:56:11.348Z,997.69
2018-08-19T10:57:32.350Z,997.69
2018-08-19T10:58:11.338Z,997.72
2018-08-19T10:59:11.377Z,997.69
2018-08-19T11:00:11.330Z,997.70
2018-08-19T11:01:11.328Z,997.64
2018-08-19T11:02:11.320Z,997.69
2018-08-19T11:03:32.326Z,997.71
2018-08-19T11:04:11.314Z,997.62
2018-08-19T11:05:11.310Z,997.63
2018-08-19T11:06:11.309Z,997.61
2018-08-19T11:07:11.301Z,997.65
2018-08-19T11:08:11.295Z,997.57
2018-08-19T11:09:32.299Z,997.60
2018-08-19T11:10:11.342Z,997.56
2018-08-19T11:11:11.281Z,997.61
2018-08-19T11:12:11.277Z,997.57
2018-08-19T11:13:11.282Z,997.50
2018-08-19T11:14:11.271Z,997.44
2018-08-19T11:15:32.273Z,997.53
2018-08-19T11:16:11.261Z,997.50
2018-08-19T11:17:11.257Z,997.48
2018-08-19T11:18:11.254Z,997.51
2018-08-19T11:19:11.256Z,997.47
2018-08-19T11:20:11.249Z,997.47
2018-08-19T11:21:32.249Z,997.44
2018-08-19T11:22:11.238Z,997.50
2018-08-19T11:23:11.237Z,997.43
2018-08-19T11:24:11.229Z,997.41
2018-08-19T11:25:11.232Z,997.41
2018-08-19T11:26:11.223Z,997.40
2018-08-19T11:27:32.254Z,997.35
2018-08-19T11:28:11.213Z,997.38
2018-08-19T11:29:11.220Z,997.37
2018-08-19T11:30:11.202Z,997.37
2018-08-19T11:31:11.201Z,997.35
2018-08-19T11:32:11.200Z,997.33
2018-08-19T11:33:32.196Z,997.32
2018-08-19T11:34:11.187Z,997.33
2018-08-19T11:35:11.181Z,997.26
2018-08-19T11:36:11.176Z,997.24
2018-08-19T11:37:11.173Z,997.19
2018-08-19T11:38:11.167Z,997.24
2018-08-19T11:39:32.173Z,997.25
2018-08-19T11:40:11.162Z,997.29
2018-08-19T11:41:11.185Z,997.26
2018-08-19T11:42:11.179Z,997.28
2018-08-19T11:43:11.196Z,997.23
2018-08-19T11:44:11.143Z,997.27
2018-08-19T11:45:32.148Z,997.17
2018-08-19T11:46:11.136Z,997.23
2018-08-19T11:47:11.131Z,997.25
2018-08-19T11:48:11.135Z,997.24
2018-08-19T11:49:11.124Z,997.20
2018-08-19T11:50:11.119Z,997.22
2018-08-19T11:51:32.120Z,997.20
2018-08-19T11:52:11.110Z,997.18
2018-08-19T11:53:11.107Z,997.17
2018-08-19T11:54:11.102Z,997.14
2018-08-19T11:55:11.140Z,997.18
2018-08-19T11:56:11.096Z,997.15
2018-08-19T11:57:32.099Z,997.11
2018-08-19T11:58:11.085Z,997.12
2018-08-19T11:59:11.081Z,997.15
2018-08-19T12:00:11.077Z,997.20
2018-08-19T12:01:11.122Z,997.13
2018-08-19T12:02:11.152Z,997.18
2018-08-19T12:03:32.070Z,997.24
2018-08-19T12:04:11.062Z,997.13
2018-08-19T12:05:11.057Z,997.19
2018-08-19T12:06:11.052Z,997.18
2018-08-19T12:07:11.049Z,997.21
2018-08-19T12:08:11.042Z,997.20
2018-08-19T12:09:32.090Z,997.19
2018-08-19T12:10:11.035Z,997.16
2018-08-19T12:11:11.030Z,997.19
2018-08-19T12:12:11.027Z,997.11
2018-08-19T12:13:11.019Z,997.09
2018-08-19T12:14:11.019Z,997.07
2018-08-19T12:15:32.020Z,997.07
2018-08-19T12:16:11.012Z,997.02
2018-08-19T12:17:11.011Z,997.08
2018-08-19T12:18:10.997Z,997.02
2018-08-19T12:19:10.993Z,997.03
2018-08-19T12:20:10.990Z,997.06
2018-08-19T12:21:31.994Z,997.06
2018-08-19T12:22:10.982Z,996.99
2018-08-19T12:23:10.976Z,997.03
2018-08-19T12:24:10.975Z,996.98
2018-08-19T12:25:10.968Z,996.99
2018-08-19T12:26:10.969Z,996.97
2018-08-19T12:27:32.056Z,996.96
2018-08-19T12:28:10.957Z,996.95